createdAt,value
2023-04-18T00:02:23.626Z,14.85
2023-04-18T00:04:50.714Z,14.82
2023-04-18T00:07:18.092Z,13.80
2023-04-18T00:09:45.008Z,12.77
2023-04-18T00:12:11.869Z,13.02
2023-04-18T00:14:38.715Z,13.32
2023-04-18T00:17:09.121Z,12.43
2023-04-18T00:19:37.442Z,12.90
2023-04-18T00:22:04.163Z,13.07
2023-04-18T00:24:31.800Z,13.70
2023-04-18T00:26:58.737Z,13.32
2023-04-18T00:29:26.067Z,13.70
2023-04-18T00:31:52.769Z,13.50
2023-04-18T00:34:19.925Z,13.52
2023-04-18T00:36:46.871Z,13.05
2023-04-18T00:39:13.628Z,12.68
2023-04-18T00:41:40.348Z,12.68
2023-04-18T00:44:07.110Z,13.45
2023-04-18T00:46:34.010Z,13.00
2023-04-18T00:49:00.989Z,13.15
2023-04-18T00:51:28.546Z,13.40
2023-04-18T00:53:55.322Z,14.38
2023-04-18T00:56:24.134Z,13.43
2023-04-18T00:58:50.782Z,14.23
2023-04-18T01:01:18.491Z,14.50
2023-04-18T01:03:45.354Z,13.88
2023-04-18T01:06:12.350Z,14.05
2023-04-18T01:08:39.201Z,14.38
2023-04-18T01:11:08.805Z,14.05
2023-04-18T01:13:36.991Z,14.27
2023-04-18T01:16:04.124Z,13.35
2023-04-18T01:18:31.870Z,14.60
2023-04-18T01:21:00.851Z,13.52
2023-04-18T01:23:27.890Z,13.75
2023-04-18T01:25:54.599Z,13.23
2023-04-18T01:28:24.295Z,14.15
2023-04-18T01:30:51.125Z,13.25
2023-04-18T01:33:17.914Z,13.25
2023-04-18T01:35:44.632Z,14.48
2023-04-18T01:38:11.741Z,14.35
2023-04-18T01:40:38.492Z,14.13
2023-04-18T01:43:05.244Z,13.93
2023-04-18T01:45:31.910Z,14.52
2023-04-18T01:47:58.683Z,13.15
2023-04-18T01:50:25.485Z,12.73
2023-04-18T01:52:52.623Z,12.93
2023-04-18T01:55:19.534Z,12.90
2023-04-18T01:57:46.656Z,12.80
2023-04-18T02:00:14.260Z,12.00
2023-04-18T02:02:41.750Z,12.43
2023-04-18T02:05:09.144Z,11.88
2023-04-18T02:07:35.885Z,11.48
2023-04-18T02:10:03.483Z,12.23
2023-04-18T02:12:30.138Z,11.63
2023-04-18T02:14:56.931Z,12.02
2023-04-18T02:17:24.190Z,11.73
2023-04-18T02:19:53.809Z,12.48
2023-04-18T02:22:20.702Z,12.73
2023-04-18T02:24:47.401Z,12.40
2023-04-18T02:27:14.467Z,13.13
2023-04-18T02:29:41.294Z,11.90
2023-04-18T02:32:08.556Z,12.85
2023-04-18T02:34:36.731Z,13.07
2023-04-18T02:37:03.790Z,13.18
2023-04-18T02:39:30.557Z,13.60
2023-04-18T02:41:57.388Z,13.25
2023-04-18T02:44:24.106Z,13.30
2023-04-18T02:46:50.832Z,14.43
2023-04-18T02:49:17.489Z,14.70
2023-04-18T02:51:44.157Z,14.80
2023-04-18T02:54:11.092Z,14.85
2023-04-18T02:56:40.270Z,14.35
2023-04-18T02:59:07.472Z,14.80
2023-04-18T03:01:34.236Z,15.15
2023-04-18T03:04:01.026Z,14.43
2023-04-18T03:06:27.756Z,14.85
2023-04-18T03:08:55.599Z,15.20
2023-04-18T03:11:22.752Z,14.77
2023-04-18T03:13:49.556Z,14.70
2023-04-18T03:16:17.062Z,13.93
2023-04-18T03:18:44.072Z,13.45
2023-04-18T03:21:11.692Z,14.05
2023-04-18T03:23:38.537Z,13.18
2023-04-18T03:26:06.933Z,12.88
2023-04-18T03:28:33.903Z,12.52
2023-04-18T03:31:00.838Z,11.65
2023-04-18T03:33:29.090Z,12.85
2023-04-18T03:35:56.077Z,11.48
2023-04-18T03:38:24.188Z,11.25
2023-04-18T03:40:51.180Z,11.70
2023-04-18T03:43:19.794Z,10.65
2023-04-18T03:45:48.117Z,11.30
2023-04-18T03:48:14.915Z,10.75
2023-04-18T03:50:41.585Z,11.05
2023-04-18T03:53:08.593Z,11.05
2023-04-18T03:55:35.526Z,10.25
2023-04-18T03:58:02.248Z,10.50
2023-04-18T04:00:29.409Z,9.93
2023-04-18T04:02:56.548Z,9.77
2023-04-18T04:05:23.474Z,9.30
2023-04-18T04:07:50.239Z,10.55
2023-04-18T04:10:17.006Z,9.52
2023-04-18T04:12:43.755Z,7.85
2023-04-18T04:15:11.505Z,8.45
2023-04-18T04:17:38.300Z,8.60
2023-04-18T04:20:05.888Z,8.43
2023-04-18T04:22:33.133Z,8.50
2023-04-18T04:25:01.444Z,8.05
2023-04-18T04:27:28.334Z,8.30
2023-04-18T04:29:56.733Z,8.10
2023-04-18T04:32:24.340Z,7.55
2023-04-18T04:34:51.166Z,7.90
2023-04-18T04:37:20.059Z,7.07
2023-04-18T04:39:46.981Z,6.43
2023-04-18T04:42:13.761Z,5.93
2023-04-18T04:44:41.917Z,5.80
2023-04-18T04:47:08.751Z,6.28
2023-04-18T04:49:36.094Z,6.18
2023-04-18T04:52:05.816Z,6.32
2023-04-18T04:54:32.642Z,6.10
2023-04-18T04:56:59.374Z,5.85
2023-04-18T04:59:26.461Z,6.63
2023-04-18T05:01:53.355Z,5.15
2023-04-18T05:04:20.587Z,5.72
2023-04-18T05:06:47.496Z,5.75
2023-04-18T05:09:14.507Z,5.72
2023-04-18T05:11:41.321Z,6.05
2023-04-18T05:14:08.078Z,6.15
2023-04-18T05:16:35.085Z,5.95
2023-04-18T05:19:01.882Z,6.15
2023-04-18T05:21:29.247Z,6.15
2023-04-18T05:23:59.074Z,6.45
2023-04-18T05:26:25.809Z,6.32
2023-04-18T05:28:52.564Z,6.60
2023-04-18T05:31:19.229Z,7.35
2023-04-18T05:33:46.156Z,6.22
2023-04-18T05:36:13.093Z,6.78
2023-04-18T05:38:40.374Z,7.10
2023-04-18T05:41:07.089Z,6.53
2023-04-18T05:43:33.845Z,6.80
2023-04-18T05:46:00.684Z,6.90
2023-04-18T05:48:27.748Z,6.43
2023-04-18T05:50:54.487Z,6.10
2023-04-18T05:53:21.843Z,6.47
2023-04-18T05:55:49.330Z,6.00
2023-04-18T05:58:16.764Z,5.85
2023-04-18T06:00:43.634Z,5.97
2023-04-18T06:03:11.341Z,5.72
2023-04-18T06:05:39.082Z,5.60
2023-04-18T06:08:06.234Z,5.90
2023-04-18T06:10:33.384Z,5.95
2023-04-18T06:13:00.196Z,6.07
2023-04-18T06:15:27.322Z,5.57
2023-04-18T06:17:54.068Z,6.00
2023-04-18T06:20:20.880Z,6.28
2023-04-18T06:22:47.744Z,6.47
2023-04-18T06:25:14.987Z,6.45
2023-04-18T06:27:41.934Z,6.38
2023-04-18T06:30:09.570Z,6.43
2023-04-18T06:32:36.537Z,6.15
2023-04-18T06:35:04.081Z,6.43
2023-04-18T06:37:30.879Z,6.40
2023-04-18T06:39:57.659Z,6.60
2023-04-18T06:42:24.446Z,6.35
2023-04-18T06:44:51.630Z,6.75
2023-04-18T06:47:18.999Z,6.00
2023-04-18T06:49:45.822Z,7.30
2023-04-18T06:52:12.551Z,7.07
2023-04-18T06:54:39.253Z,7.15
2023-04-18T06:57:06.441Z,7.35
2023-04-18T06:59:33.524Z,7.50
2023-04-18T07:02:00.295Z,7.53
2023-04-18T07:04:27.263Z,8.45
2023-04-18T07:06:54.711Z,8.43
2023-04-18T07:09:23.116Z,7.53
2023-04-18T07:11:51.445Z,8.98
2023-04-18T07:14:20.383Z,9.30
2023-04-18T07:16:47.420Z,10.25
2023-04-18T07:19:14.536Z,8.98
2023-04-18T07:21:44.106Z,10.60
2023-04-18T07:24:12.589Z,10.75
2023-04-18T07:26:39.792Z,11.40
2023-04-18T07:29:06.714Z,11.43
2023-04-18T07:31:35.446Z,11.80
2023-04-18T07:34:02.285Z,13.18
2023-04-18T07:36:29.230Z,12.70
2023-04-18T07:38:56.044Z,13.93
2023-04-18T07:41:22.854Z,14.68
2023-04-18T07:43:50.584Z,13.73
2023-04-18T07:46:17.392Z,13.68
2023-04-18T07:48:44.161Z,15.25
2023-04-18T07:51:11.942Z,14.93
2023-04-18T07:53:38.608Z,15.02
2023-04-18T07:56:05.981Z,15.38
2023-04-18T07:58:34.924Z,16.23
2023-04-18T08:01:01.582Z,15.43
2023-04-18T08:03:28.591Z,16.55
2023-04-18T08:05:56.185Z,18.70
2023-04-18T08:08:22.908Z,17.30
2023-04-18T08:10:49.760Z,18.17
2023-04-18T08:13:18.216Z,17.55
2023-04-18T08:15:46.630Z,17.92
2023-04-18T08:18:13.617Z,18.02
2023-04-18T08:20:41.188Z,19.77
2023-04-18T08:23:11.261Z,22.90
2023-04-18T08:25:39.691Z,22.23
2023-04-18T08:28:06.873Z,23.15
2023-04-18T08:30:34.293Z,23.90
2023-04-18T08:33:01.469Z,23.40
2023-04-18T08:35:28.900Z,24.63
2023-04-18T08:37:55.872Z,26.27
2023-04-18T08:40:23.031Z,27.70
2023-04-18T08:42:50.674Z,30.02
2023-04-18T08:45:18.949Z,28.00
2023-04-18T08:47:45.877Z,28.25
2023-04-18T08:50:13.107Z,28.50
2023-04-18T08:52:45.381Z,27.33
2023-04-18T08:55:12.600Z,28.30
2023-04-18T08:57:43.662Z,27.70
2023-04-18T09:00:12.216Z,26.08
2023-04-18T09:02:44.969Z,25.95
2023-04-18T09:05:14.782Z,25.70
2023-04-18T09:07:41.796Z,25.08
2023-04-18T09:10:10.188Z,24.27
2023-04-18T09:12:50.717Z,25.23
2023-04-18T09:15:20.935Z,24.48
2023-04-18T09:17:51.289Z,23.40
2023-04-18T09:20:36.453Z,23.65
2023-04-18T09:23:11.501Z,23.50
2023-04-18T09:25:47.045Z,22.25
2023-04-18T09:28:33.814Z,23.42
2023-04-18T09:31:13.336Z,23.35
2023-04-18T09:33:43.502Z,23.35
2023-04-18T09:36:29.376Z,23.13
2023-04-18T09:38:57.279Z,22.02
2023-04-18T09:41:24.675Z,21.65
2023-04-18T09:44:09.298Z,21.40
2023-04-18T09:46:37.681Z,21.00
2023-04-18T09:49:04.543Z,20.55
2023-04-18T09:51:32.123Z,19.13
2023-04-18T09:53:59.641Z,19.80
2023-04-18T09:56:28.759Z,20.27
2023-04-18T09:58:57.236Z,19.05
2023-04-18T10:01:28.547Z,20.13
2023-04-18T10:03:56.534Z,19.20
2023-04-18T10:06:23.756Z,20.73
2023-04-18T10:08:52.128Z,18.92
2023-04-18T10:11:20.308Z,20.13
2023-04-18T10:13:54.101Z,18.52
2023-04-18T10:16:22.521Z,18.73
2023-04-18T10:18:51.083Z,17.50
2023-04-18T10:21:18.088Z,19.05
2023-04-18T10:23:49.058Z,18.83
2023-04-18T10:26:16.410Z,17.42
2023-04-18T10:28:59.326Z,15.23
2023-04-18T10:31:27.769Z,15.50
2023-04-18T10:36:28.954Z,15.02
2023-04-18T10:39:06.095Z,15.63
2023-04-18T10:41:34.075Z,15.75
2023-04-18T10:44:27.870Z,15.60
2023-04-18T10:47:18.635Z,15.88
2023-04-18T10:49:53.979Z,15.25
2023-04-18T10:52:20.795Z,14.10
2023-04-18T10:54:52.961Z,13.55
2023-04-18T10:57:19.720Z,14.75
2023-04-18T10:59:51.491Z,13.85
2023-04-18T11:02:30.554Z,13.95
2023-04-18T11:05:01.846Z,13.90
2023-04-18T11:07:49.237Z,13.15
2023-04-18T11:10:22.305Z,13.93
2023-04-18T11:12:49.765Z,13.77
2023-04-18T11:15:21.911Z,13.45
2023-04-18T11:17:57.414Z,13.60
2023-04-18T11:20:24.424Z,13.02
2023-04-18T11:22:58.923Z,13.93
2023-04-18T11:25:32.220Z,14.13
2023-04-18T11:28:01.051Z,15.30
2023-04-18T11:30:28.830Z,14.00
2023-04-18T11:32:56.336Z,13.88
2023-04-18T11:35:23.258Z,13.82
2023-04-18T11:37:51.544Z,14.73
2023-04-18T11:40:18.587Z,13.85
2023-04-18T11:42:45.777Z,13.73
2023-04-18T11:45:14.363Z,13.77
2023-04-18T11:47:43.259Z,12.93
2023-04-18T11:50:12.465Z,12.77
2023-04-18T11:52:41.625Z,12.52
2023-04-18T11:55:22.068Z,13.57
2023-04-18T11:57:57.291Z,12.43
2023-04-18T12:00:37.794Z,11.57
2023-04-18T12:03:15.922Z,13.32
2023-04-18T12:05:43.282Z,13.43
2023-04-18T12:08:12.113Z,13.88
2023-04-18T12:10:49.108Z,10.98
2023-04-18T12:13:16.419Z,12.93
2023-04-18T12:15:44.913Z,13.73
2023-04-18T12:18:13.557Z,14.05
2023-04-18T12:20:46.893Z,11.77
2023-04-18T12:23:51.191Z,14.23
2023-04-18T12:26:23.440Z,13.00
2023-04-18T12:28:51.574Z,11.32
2023-04-18T12:31:18.345Z,11.93
2023-04-18T12:33:45.146Z,12.32
2023-04-18T12:36:11.984Z,12.05
2023-04-18T12:38:38.735Z,11.00
2023-04-18T12:41:06.212Z,10.88
2023-04-18T12:43:32.953Z,11.40
2023-04-18T12:46:00.141Z,11.38
2023-04-18T12:48:26.903Z,14.10
2023-04-18T12:50:53.720Z,11.52
2023-04-18T12:53:20.634Z,11.70
2023-04-18T12:55:47.448Z,11.48
2023-04-18T12:58:19.105Z,10.80
2023-04-18T13:00:46.600Z,11.32
2023-04-18T13:03:13.990Z,10.68
2023-04-18T13:05:41.253Z,11.65
2023-04-18T13:08:17.257Z,11.70
2023-04-18T13:10:45.866Z,11.25
2023-04-18T13:13:12.828Z,10.57
2023-04-18T13:15:40.154Z,10.15
2023-04-18T13:18:07.305Z,24.48
2023-04-18T13:20:34.506Z,10.20
2023-04-18T13:23:02.878Z,16.83
2023-04-18T13:25:29.670Z,11.20
2023-04-18T13:27:58.711Z,12.48
2023-04-18T13:30:25.941Z,9.77
2023-04-18T13:32:52.793Z,10.45
2023-04-18T13:35:20.222Z,10.50
2023-04-18T13:37:47.013Z,10.80
2023-04-18T13:40:14.008Z,10.98
2023-04-18T13:42:40.833Z,18.90
2023-04-18T13:45:07.948Z,15.25
2023-04-18T13:47:34.838Z,24.50
2023-04-18T13:50:01.890Z,11.25
2023-04-18T13:52:28.934Z,10.60
2023-04-18T13:54:55.828Z,10.32
2023-04-18T13:57:23.412Z,10.82
2023-04-18T13:59:50.424Z,11.23
2023-04-18T14:02:17.442Z,10.80
2023-04-18T14:04:44.392Z,10.15
2023-04-18T14:07:11.293Z,11.25
2023-04-18T14:09:38.052Z,11.98
2023-04-18T14:12:05.250Z,10.65
2023-04-18T14:14:31.963Z,10.30
2023-04-18T14:16:59.023Z,10.07
2023-04-18T14:19:27.220Z,10.88
2023-04-18T14:21:54.191Z,9.98
2023-04-18T14:24:21.287Z,13.27
2023-04-18T14:26:48.228Z,10.80
2023-04-18T14:29:15.199Z,11.43
2023-04-18T14:31:42.247Z,10.90
2023-04-18T14:34:10.035Z,10.15
2023-04-18T14:36:37.146Z,9.77
2023-04-18T14:39:04.274Z,9.68
2023-04-18T14:41:31.266Z,10.73
2023-04-18T14:43:58.183Z,9.25
2023-04-18T14:46:25.639Z,12.52
2023-04-18T14:48:52.480Z,9.85
2023-04-18T14:51:19.587Z,9.60
2023-04-18T14:53:46.538Z,9.68
2023-04-18T14:56:15.448Z,10.20
2023-04-18T14:58:44.162Z,9.73
2023-04-18T15:01:10.942Z,9.75
2023-04-18T15:03:38.138Z,9.70
2023-04-18T15:06:05.164Z,9.32
2023-04-18T15:08:32.856Z,9.70
2023-04-18T15:10:59.811Z,9.80
2023-04-18T15:13:26.569Z,9.65
2023-04-18T15:15:53.834Z,8.75
2023-04-18T15:18:20.926Z,9.93
2023-04-18T15:20:47.846Z,9.27
2023-04-18T15:23:15.242Z,9.40
2023-04-18T15:25:42.869Z,9.38
2023-04-18T15:28:10.184Z,10.02
2023-04-18T15:30:37.285Z,10.20
2023-04-18T15:33:04.257Z,10.30
2023-04-18T15:35:32.156Z,9.52
2023-04-18T15:37:58.917Z,9.75
2023-04-18T15:40:25.667Z,9.98
2023-04-18T15:42:54.890Z,10.00
2023-04-18T15:45:22.364Z,10.35
2023-04-18T15:47:49.440Z,10.38
2023-04-18T15:50:16.680Z,11.63
2023-04-18T15:52:44.130Z,10.82
2023-04-18T15:55:12.680Z,10.40
2023-04-18T15:57:40.291Z,10.57
2023-04-18T16:00:14.241Z,9.68
2023-04-18T16:02:41.032Z,10.02
2023-04-18T16:05:08.768Z,10.32
2023-04-18T16:07:35.513Z,9.55
2023-04-18T16:10:05.356Z,9.32
2023-04-18T16:12:32.225Z,9.18
2023-04-18T16:14:58.985Z,9.70
2023-04-18T16:17:25.801Z,9.35
2023-04-18T16:19:52.633Z,9.80
2023-04-18T16:22:19.421Z,9.93
2023-04-18T16:24:46.311Z,10.45
2023-04-18T16:27:13.159Z,10.27
2023-04-18T16:29:40.032Z,9.88
2023-04-18T16:32:08.617Z,9.40
2023-04-18T16:34:35.453Z,10.02
2023-04-18T16:37:02.317Z,9.55
2023-04-18T16:39:29.784Z,10.65
2023-04-18T16:41:56.842Z,9.70
2023-04-18T16:44:23.764Z,9.93
2023-04-18T16:46:50.932Z,10.07
2023-04-18T16:49:17.845Z,9.40
2023-04-18T16:51:45.088Z,10.18
2023-04-18T16:54:12.175Z,10.50
2023-04-18T16:56:39.191Z,10.68
2023-04-18T16:59:09.421Z,10.70
2023-04-18T17:01:36.861Z,10.07
2023-04-18T17:04:04.257Z,9.50
2023-04-18T17:06:32.542Z,10.23
2023-04-18T17:08:59.357Z,9.88
2023-04-18T17:11:26.846Z,14.60
2023-04-18T17:13:53.766Z,12.00
2023-04-18T17:16:20.652Z,10.70
2023-04-18T17:18:47.459Z,10.40
2023-04-18T17:21:14.280Z,10.63
2023-04-18T17:23:42.752Z,10.27
2023-04-18T17:26:09.999Z,10.23
2023-04-18T17:28:36.910Z,10.40
2023-04-18T17:31:04.252Z,10.73
2023-04-18T17:33:31.712Z,10.95
2023-04-18T17:35:58.995Z,11.38
2023-04-18T17:38:25.861Z,10.75
2023-04-18T17:41:02.984Z,11.43
2023-04-18T17:43:29.917Z,10.65
2023-04-18T17:46:00.345Z,10.32
2023-04-18T17:48:27.131Z,10.93
2023-04-18T17:50:54.143Z,10.43
2023-04-18T17:53:21.173Z,11.55
2023-04-18T17:55:51.040Z,10.88
2023-04-18T17:58:18.989Z,11.07
2023-04-18T18:00:45.819Z,11.25
2023-04-18T18:03:16.439Z,11.10
2023-04-18T18:05:46.146Z,11.05
2023-04-18T18:08:12.945Z,12.73
2023-04-18T18:10:39.726Z,12.52
2023-04-18T18:13:07.191Z,12.20
2023-04-18T18:15:33.907Z,11.57
2023-04-18T18:18:02.194Z,12.05
2023-04-18T18:20:29.683Z,14.20
2023-04-18T18:22:57.575Z,12.95
2023-04-18T18:25:24.426Z,12.07
2023-04-18T18:27:51.796Z,12.45
2023-04-18T18:30:19.474Z,12.65
2023-04-18T18:32:46.401Z,12.38
2023-04-18T18:35:13.457Z,12.55
2023-04-18T18:37:41.429Z,12.70
2023-04-18T18:40:09.407Z,12.52
2023-04-18T18:42:37.030Z,12.77
2023-04-18T18:45:04.300Z,13.07
2023-04-18T18:47:31.098Z,11.73
2023-04-18T18:49:57.856Z,11.63
2023-04-18T18:52:25.278Z,12.95
2023-04-18T18:54:53.153Z,11.77
2023-04-18T18:57:19.919Z,11.93
2023-04-18T18:59:48.657Z,12.38
2023-04-18T19:02:15.442Z,11.52
2023-04-18T19:04:42.626Z,14.45
2023-04-18T19:07:09.845Z,12.88
2023-04-18T19:09:37.208Z,11.57
2023-04-18T19:12:05.130Z,12.48
2023-04-18T19:14:31.841Z,13.82
2023-04-18T19:16:58.631Z,13.18
2023-04-18T19:19:25.371Z,13.00
2023-04-18T19:21:52.114Z,13.07
2023-04-18T19:24:19.258Z,13.48
2023-04-18T19:26:45.996Z,15.05
2023-04-18T19:29:14.779Z,15.60
2023-04-18T19:31:43.835Z,15.25
2023-04-18T19:34:11.145Z,14.05
2023-04-18T19:36:38.041Z,13.95
2023-04-18T19:39:04.742Z,14.23
2023-04-18T19:41:31.470Z,15.18
2023-04-18T19:43:58.243Z,15.18
2023-04-18T19:46:24.950Z,15.43
2023-04-18T19:48:51.647Z,15.68
2023-04-18T19:51:18.406Z,15.43
2023-04-18T19:53:45.209Z,15.70
2023-04-18T19:56:13.946Z,15.63
2023-04-18T19:58:45.363Z,16.63
2023-04-18T20:01:13.604Z,16.80
2023-04-18T20:03:41.209Z,16.27
2023-04-18T20:06:08.835Z,17.15
2023-04-18T20:08:36.947Z,16.48
2023-04-18T20:11:10.965Z,16.15
2023-04-18T20:13:38.320Z,17.15
2023-04-18T20:16:06.108Z,17.50
2023-04-18T20:18:36.227Z,17.98
2023-04-18T20:21:03.649Z,17.30
2023-04-18T20:23:30.388Z,20.20
2023-04-18T20:25:57.161Z,19.30
2023-04-18T20:28:24.037Z,18.80
2023-04-18T20:30:51.039Z,17.98
2023-04-18T20:33:17.871Z,17.92
2023-04-18T20:35:44.958Z,18.25
2023-04-18T20:38:12.589Z,18.02
2023-04-18T20:40:39.967Z,17.50
2023-04-18T20:43:08.397Z,17.17
2023-04-18T20:45:37.980Z,18.25
2023-04-18T20:48:05.329Z,18.20
2023-04-18T20:50:32.162Z,18.63
2023-04-18T20:53:01.136Z,17.80
2023-04-18T20:55:28.151Z,17.70
2023-04-18T20:57:56.940Z,18.17
2023-04-18T21:00:23.926Z,17.83
2023-04-18T21:02:51.013Z,18.00
2023-04-18T21:05:17.836Z,17.73
2023-04-18T21:07:45.846Z,18.48
2023-04-18T21:10:12.691Z,17.95
2023-04-18T21:12:39.610Z,18.88
2023-04-18T21:15:06.979Z,18.20
2023-04-18T21:17:34.038Z,18.38
2023-04-18T21:20:00.770Z,17.65
2023-04-18T21:22:27.524Z,17.10
2023-04-18T21:24:54.401Z,18.05
2023-04-18T21:27:21.578Z,17.50
2023-04-18T21:29:48.320Z,17.50
2023-04-18T21:32:15.391Z,18.58
2023-04-18T21:34:42.402Z,17.92
2023-04-18T21:37:09.527Z,17.95
2023-04-18T21:39:38.489Z,17.33
2023-04-18T21:42:05.291Z,18.33
2023-04-18T21:44:32.218Z,19.92
2023-04-18T21:46:59.105Z,18.48
2023-04-18T21:49:26.076Z,17.70
2023-04-18T21:51:52.986Z,18.73
2023-04-18T21:54:19.795Z,18.67
2023-04-18T21:56:48.390Z,18.77
2023-04-18T21:59:15.176Z,18.13
2023-04-18T22:01:43.044Z,19.05
2023-04-18T22:04:09.975Z,18.60
2023-04-18T22:06:37.322Z,18.08
2023-04-18T22:09:05.608Z,19.13
2023-04-18T22:11:34.185Z,19.38
2023-04-18T22:14:01.799Z,19.35
2023-04-18T22:16:29.563Z,19.42
2023-04-18T22:18:56.428Z,19.45
2023-04-18T22:21:23.417Z,19.45
2023-04-18T22:23:50.316Z,19.65
2023-04-18T22:26:17.126Z,19.30
2023-04-18T22:28:43.862Z,19.98
2023-04-18T22:31:10.686Z,19.63
2023-04-18T22:33:38.045Z,18.77
2023-04-18T22:36:05.966Z,19.45
2023-04-18T22:38:32.853Z,18.45
2023-04-18T22:41:00.139Z,19.63
2023-04-18T22:43:27.264Z,19.40
2023-04-18T22:45:54.090Z,19.73
2023-04-18T22:48:21.047Z,19.08
2023-04-18T22:50:48.019Z,19.27
2023-04-18T22:53:15.470Z,18.38
2023-04-18T22:55:43.460Z,18.20
2023-04-18T22:58:11.141Z,17.95
2023-04-18T23:00:37.900Z,18.40
2023-04-18T23:03:05.046Z,18.77
2023-04-18T23:05:32.263Z,19.13
2023-04-18T23:08:00.329Z,17.73
2023-04-18T23:10:28.068Z,18.55
2023-04-18T23:12:55.061Z,18.90
2023-04-18T23:15:23.086Z,17.65
2023-04-18T23:17:54.944Z,18.65
2023-04-18T23:20:22.100Z,18.05
2023-04-18T23:22:51.987Z,17.75
2023-04-18T23:25:20.047Z,18.05
2023-04-18T23:27:47.485Z,18.27
2023-04-18T23:30:14.388Z,17.92
2023-04-18T23:32:41.331Z,19.13
2023-04-18T23:35:08.923Z,18.85
2023-04-18T23:37:35.719Z,19.38
2023-04-18T23:40:06.264Z,18.13
2023-04-18T23:42:35.136Z,18.15
2023-04-18T23:45:04.215Z,18.65
2023-04-18T23:47:30.974Z,17.80
2023-04-18T23:49:57.743Z,17.83
2023-04-18T23:52:24.607Z,17.42
2023-04-18T23:54:52.087Z,16.52
2023-04-18T23:57:18.876Z,17.05
2023-04-18T23:59:45.578Z,17.42
